createdAt,value
2018-06-24T00:00:34.171Z,12.60
2018-06-24T00:03:02.221Z,12.60
2018-06-24T00:05:30.266Z,12.50
2018-06-24T00:07:58.292Z,12.60
2018-06-24T00:10:25.669Z,12.60
2018-06-24T00:12:53.746Z,12.70
2018-06-24T00:15:21.161Z,12.70
2018-06-24T00:20:15.708Z,12.80
2018-06-24T00:22:43.740Z,12.80
2018-06-24T00:25:11.148Z,12.80
2018-06-24T00:30:06.593Z,12.80
2018-06-24T00:32:34.707Z,12.80
2018-06-24T00:35:02.755Z,12.80
2018-06-24T00:37:30.771Z,12.70
2018-06-24T00:39:58.837Z,12.80
2018-06-24T00:42:26.875Z,12.70
2018-06-24T00:44:54.902Z,12.60
2018-06-24T00:47:22.960Z,12.50
2018-06-24T00:49:50.975Z,12.40
2018-06-24T00:52:19.017Z,12.30
2018-06-24T00:54:47.066Z,12.20
2018-06-24T00:57:15.131Z,12.10
2018-06-24T00:59:54.602Z,12.00
2018-06-24T01:02:22.666Z,12.00
2018-06-24T01:04:50.715Z,11.90
2018-06-24T01:07:18.748Z,11.90
2018-06-24T01:09:46.791Z,11.90
2018-06-24T01:12:14.848Z,11.80
2018-06-24T01:17:10.718Z,11.90
2018-06-24T01:19:38.746Z,11.80
2018-06-24T01:22:06.759Z,11.80
2018-06-24T01:24:34.827Z,11.70
2018-06-24T01:27:02.887Z,11.70
2018-06-24T01:29:30.910Z,11.60
2018-06-24T01:31:58.950Z,11.60
2018-06-24T01:34:26.974Z,11.50
2018-06-24T01:36:55.024Z,11.50
2018-06-24T01:39:23.106Z,11.40
2018-06-24T01:41:50.601Z,11.30
2018-06-24T01:46:45.806Z,11.40
2018-06-24T01:49:13.852Z,11.30
2018-06-24T01:54:09.790Z,11.30
2018-06-24T01:56:37.840Z,11.30
2018-06-24T01:59:05.867Z,11.30
2018-06-24T02:04:01.750Z,11.30
2018-06-24T02:06:29.786Z,11.20
2018-06-24T02:08:57.831Z,11.20
2018-06-24T02:11:25.874Z,11.20
2018-06-24T02:13:53.944Z,11.10
2018-06-24T02:16:22.012Z,11.20
2018-06-24T02:18:50.046Z,11.20
2018-06-24T02:21:18.106Z,11.30
2018-06-24T02:23:46.162Z,11.40
2018-06-24T02:26:14.227Z,11.30
2018-06-24T02:28:42.247Z,11.30
2018-06-24T02:31:10.314Z,11.30
2018-06-24T02:33:38.399Z,11.40
2018-06-24T02:36:06.455Z,11.40
2018-06-24T02:38:34.501Z,11.50
2018-06-24T02:41:02.538Z,11.50
2018-06-24T02:43:30.592Z,11.60
2018-06-24T02:45:58.623Z,11.70
2018-06-24T02:48:26.054Z,11.70
2018-06-24T02:50:53.445Z,11.70
2018-06-24T02:53:20.838Z,11.80
2018-06-24T02:55:48.847Z,11.70
2018-06-24T02:58:16.883Z,11.70
2018-06-24T03:00:44.922Z,11.70
2018-06-24T03:03:12.963Z,11.70
2018-06-24T03:08:08.823Z,11.50
2018-06-24T03:10:36.976Z,11.50
2018-06-24T03:13:05.021Z,11.50
2018-06-24T03:15:33.046Z,11.50
2018-06-24T03:20:28.943Z,11.50
2018-06-24T03:22:56.986Z,11.50
2018-06-24T03:25:25.012Z,11.50
2018-06-24T03:27:53.042Z,11.50
2018-06-24T03:30:21.085Z,11.50
2018-06-24T03:32:49.118Z,11.50
2018-06-24T03:35:17.166Z,11.60
2018-06-24T03:37:45.211Z,11.50
2018-06-24T03:40:13.226Z,11.40
2018-06-24T03:42:41.274Z,11.40
2018-06-24T03:47:36.665Z,11.40
2018-06-24T03:52:32.522Z,11.30
2018-06-24T03:55:00.011Z,11.30
2018-06-24T03:57:28.103Z,11.30
2018-06-24T03:59:56.159Z,11.40
2018-06-24T04:02:24.205Z,11.60
2018-06-24T04:04:52.262Z,11.60
2018-06-24T04:07:20.255Z,11.60
2018-06-24T04:09:48.274Z,11.60
2018-06-24T04:12:16.340Z,11.70
2018-06-24T04:14:44.399Z,11.70
2018-06-24T04:17:12.442Z,11.60
2018-06-24T04:19:40.498Z,11.60
2018-06-24T04:22:08.523Z,11.60
2018-06-24T04:24:36.550Z,11.70
2018-06-24T04:27:04.562Z,11.80
2018-06-24T04:29:32.578Z,11.90
2018-06-24T04:34:27.121Z,11.90
2018-06-24T04:36:55.142Z,11.90
2018-06-24T04:39:23.202Z,12.10
2018-06-24T04:41:51.252Z,12.10
2018-06-24T04:44:19.290Z,12.20
2018-06-24T04:46:47.451Z,12.10
2018-06-24T04:49:15.491Z,12.10
2018-06-24T04:51:43.629Z,12.10
2018-06-24T04:54:11.562Z,12.10
2018-06-24T04:56:39.667Z,12.20
2018-06-24T04:59:08.613Z,12.20
2018-06-24T05:01:36.778Z,12.20
2018-06-24T05:04:04.825Z,12.40
2018-06-24T05:06:32.916Z,12.50
2018-06-24T05:09:00.914Z,12.50
2018-06-24T05:11:28.974Z,12.70
2018-06-24T05:13:56.986Z,12.90
2018-06-24T05:16:24.359Z,12.90
2018-06-24T05:18:51.761Z,13.00
2018-06-24T05:21:19.819Z,13.10
2018-06-24T05:23:47.851Z,13.10
2018-06-24T05:26:15.887Z,13.00
2018-06-24T05:28:43.906Z,13.00
2018-06-24T05:31:11.266Z,13.10
2018-06-24T05:33:38.644Z,13.20
2018-06-24T05:36:06.021Z,13.30
2018-06-24T05:38:34.042Z,13.30
2018-06-24T05:43:29.906Z,13.40
2018-06-24T05:45:57.947Z,13.50
2018-06-24T05:48:26.019Z,13.60
2018-06-24T05:50:54.041Z,13.60
2018-06-24T05:53:22.063Z,13.70
2018-06-24T05:55:50.285Z,13.70
2018-06-24T05:58:18.322Z,13.80
2018-06-24T06:00:46.367Z,14.10
2018-06-24T06:03:13.791Z,14.20
2018-06-24T06:05:41.826Z,14.40
2018-06-24T06:08:09.869Z,14.50
2018-06-24T06:10:37.911Z,14.50
2018-06-24T06:13:06.264Z,14.50
2018-06-24T06:15:34.525Z,14.50
2018-06-24T06:18:02.569Z,14.20
2018-06-24T06:20:30.603Z,14.20
2018-06-24T06:22:58.627Z,14.30
2018-06-24T06:25:26.651Z,14.30
2018-06-24T06:27:54.692Z,14.30
2018-06-24T06:30:22.714Z,14.40
2018-06-24T06:35:18.570Z,14.40
2018-06-24T06:37:46.624Z,14.20
2018-06-24T06:40:14.698Z,14.30
2018-06-24T06:42:42.066Z,14.50
2018-06-24T06:45:10.219Z,14.50
2018-06-24T06:47:38.138Z,14.60
2018-06-24T06:50:06.390Z,14.60
2018-06-24T06:52:34.425Z,14.60
2018-06-24T06:55:02.496Z,14.60
2018-06-24T06:57:30.522Z,14.60
2018-06-24T06:59:58.547Z,14.60
2018-06-24T07:02:25.918Z,14.60
2018-06-24T07:04:53.285Z,14.70
2018-06-24T07:07:20.661Z,14.90
2018-06-24T07:09:48.678Z,15.00
2018-06-24T07:12:16.706Z,15.10
2018-06-24T07:14:44.137Z,15.20
2018-06-24T07:17:12.163Z,15.30
2018-06-24T07:22:07.400Z,15.40
2018-06-24T07:24:34.717Z,15.70
2018-06-24T07:27:02.110Z,15.80
2018-06-24T07:29:29.490Z,16.00
2018-06-24T07:31:57.572Z,16.10
2018-06-24T07:34:25.015Z,15.80
2018-06-24T07:39:20.282Z,15.90
2018-06-24T07:41:47.602Z,16.10
2018-06-24T07:44:15.682Z,16.20
2018-06-24T07:46:43.695Z,16.10
2018-06-24T07:49:11.102Z,15.90
2018-06-24T07:51:39.134Z,15.80
2018-06-24T07:54:07.167Z,16.00
2018-06-24T07:56:34.650Z,16.20
2018-06-24T07:59:02.689Z,16.20
2018-06-24T08:01:30.046Z,16.40
2018-06-24T08:03:58.102Z,16.40
2018-06-24T08:06:25.491Z,16.40
2018-06-24T08:08:52.869Z,16.50
2018-06-24T08:13:48.186Z,16.90
2018-06-24T08:16:16.411Z,17.10
2018-06-24T08:18:43.909Z,17.20
2018-06-24T08:21:11.335Z,17.30
2018-06-24T08:23:38.707Z,17.40
2018-06-24T08:26:06.071Z,17.20
2018-06-24T08:28:34.115Z,17.10
2018-06-24T08:31:02.138Z,17.20
2018-06-24T08:33:29.518Z,17.30
2018-06-24T08:35:57.536Z,17.30
2018-06-24T08:38:25.577Z,17.30
2018-06-24T08:40:53.593Z,17.40
2018-06-24T08:45:49.419Z,17.40
2018-06-24T08:50:45.275Z,17.80
2018-06-24T08:53:12.694Z,18.00
2018-06-24T08:55:40.091Z,17.70
2018-06-24T08:58:07.450Z,17.60
2018-06-24T09:03:01.967Z,16.90
2018-06-24T09:05:29.364Z,17.20
2018-06-24T09:10:24.567Z,17.50
2018-06-24T09:12:52.578Z,17.60
2018-06-24T09:15:19.978Z,17.50
2018-06-24T09:17:47.390Z,17.90
2018-06-24T09:22:41.933Z,18.40
2018-06-24T09:25:09.322Z,18.30
2018-06-24T09:27:36.684Z,18.60
2018-06-24T09:30:04.227Z,19.00
2018-06-24T09:32:31.622Z,19.20
2018-06-24T09:34:58.994Z,19.30
2018-06-24T09:37:26.488Z,19.40
2018-06-24T09:39:53.867Z,19.70
2018-06-24T09:42:21.254Z,19.80
2018-06-24T09:44:48.625Z,19.80
2018-06-24T09:47:16.020Z,19.30
2018-06-24T09:49:43.428Z,19.40
2018-06-24T09:52:11.466Z,19.30
2018-06-24T09:54:38.896Z,19.10
2018-06-24T09:57:06.910Z,19.10
2018-06-24T09:59:34.302Z,19.30
2018-06-24T10:02:01.846Z,19.10
2018-06-24T10:04:29.219Z,18.80
2018-06-24T10:06:56.793Z,18.80
2018-06-24T10:09:24.843Z,19.00
2018-06-24T10:11:52.194Z,19.20
2018-06-24T10:14:19.583Z,19.30
2018-06-24T10:16:47.654Z,19.50
2018-06-24T10:19:15.035Z,19.50
2018-06-24T10:21:42.552Z,19.10
2018-06-24T10:24:10.050Z,19.00
2018-06-24T10:26:37.447Z,18.80
2018-06-24T10:29:05.719Z,18.80
2018-06-24T10:31:33.967Z,18.80
2018-06-24T10:34:01.999Z,19.20
2018-06-24T10:36:29.403Z,19.30
2018-06-24T10:38:56.774Z,19.30
2018-06-24T10:41:24.811Z,19.30
2018-06-24T10:46:19.392Z,19.80
2018-06-24T10:51:14.586Z,20.50
2018-06-24T10:53:43.622Z,20.70
2018-06-24T10:56:11.701Z,21.00
2018-06-24T10:58:39.750Z,20.90
2018-06-24T11:01:07.790Z,20.80
2018-06-24T11:03:35.156Z,20.50
2018-06-24T11:08:29.694Z,19.90
2018-06-24T11:10:57.061Z,19.50
2018-06-24T11:13:25.079Z,19.40
2018-06-24T11:15:52.444Z,19.20
2018-06-24T11:18:20.482Z,19.10
2018-06-24T11:20:48.523Z,19.10
2018-06-24T11:23:16.625Z,19.10
2018-06-24T11:25:44.078Z,19.10
2018-06-24T11:30:38.671Z,19.30
2018-06-24T11:35:33.876Z,19.20
2018-06-24T11:38:01.899Z,19.10
2018-06-24T11:40:29.261Z,18.80
2018-06-24T11:42:56.645Z,18.60
2018-06-24T11:45:24.699Z,18.70
2018-06-24T11:47:52.140Z,18.80
2018-06-24T11:50:20.112Z,18.70
2018-06-24T11:52:48.139Z,18.70
2018-06-24T11:55:15.523Z,18.80
2018-06-24T11:57:43.535Z,19.00
2018-06-24T12:00:10.932Z,19.20
2018-06-24T12:02:38.349Z,19.40
2018-06-24T12:05:05.726Z,19.50
2018-06-24T12:07:33.101Z,19.80
2018-06-24T12:10:00.470Z,19.70
2018-06-24T12:12:27.866Z,19.50
2018-06-24T12:14:55.886Z,19.70
2018-06-24T12:17:27.725Z,19.80
2018-06-24T12:19:50.650Z,20.20
2018-06-24T12:22:18.013Z,20.40
2018-06-24T12:27:13.230Z,20.50
2018-06-24T12:29:41.254Z,20.40
2018-06-24T12:32:08.609Z,20.40
2018-06-24T12:34:36.626Z,20.60
2018-06-24T12:41:59.015Z,21.50
2018-06-24T12:44:27.062Z,21.20
2018-06-24T12:46:55.098Z,21.00
2018-06-24T12:49:23.154Z,20.60
2018-06-24T12:51:50.526Z,20.60
2018-06-24T12:54:17.893Z,20.50
2018-06-24T12:56:45.254Z,20.30
2018-06-24T12:59:12.811Z,20.20
2018-06-24T13:01:40.006Z,20.00
2018-06-24T13:04:07.377Z,20.00
2018-06-24T13:06:34.746Z,20.30
2018-06-24T13:09:02.114Z,20.50
2018-06-24T13:11:30.141Z,20.60
2018-06-24T13:13:58.154Z,21.10
2018-06-24T13:16:25.523Z,21.80
2018-06-24T13:18:53.570Z,22.10
2018-06-24T13:23:48.762Z,22.00
2018-06-24T13:26:16.799Z,21.30
2018-06-24T13:28:44.154Z,21.50
2018-06-24T13:31:11.533Z,21.80
2018-06-24T13:33:38.902Z,22.50
2018-06-24T13:36:06.286Z,23.10
2018-06-24T13:38:33.659Z,22.70
2018-06-24T13:41:01.021Z,22.40
2018-06-24T13:43:28.385Z,23.00
2018-06-24T13:48:22.929Z,23.70
2018-06-24T13:50:50.334Z,23.80
2018-06-24T13:53:17.702Z,24.30
2018-06-24T13:55:45.242Z,24.70
2018-06-24T13:58:13.270Z,24.40
2018-06-24T14:00:41.320Z,23.40
2018-06-24T14:03:08.698Z,23.10
2018-06-24T14:05:36.079Z,22.80
2018-06-24T14:08:04.198Z,22.50
2018-06-24T14:10:31.565Z,22.50
2018-06-24T14:12:58.943Z,22.40
2018-06-24T14:15:26.315Z,22.50
2018-06-24T14:17:54.351Z,22.80
2018-06-24T14:20:22.392Z,22.70
2018-06-24T14:22:50.420Z,22.90
2018-06-24T14:27:44.997Z,22.50
2018-06-24T14:30:12.376Z,22.10
2018-06-24T14:32:39.754Z,21.70
2018-06-24T14:35:07.149Z,21.00
2018-06-24T14:37:35.185Z,20.90
2018-06-24T14:40:02.567Z,20.80
2018-06-24T14:42:30.603Z,20.70
2018-06-24T14:44:58.663Z,20.70
2018-06-24T14:47:26.686Z,20.50
2018-06-24T14:52:21.578Z,20.40
2018-06-24T14:54:49.619Z,20.40
2018-06-24T14:57:16.983Z,20.50
2018-06-24T14:59:44.395Z,20.40
2018-06-24T15:02:11.938Z,20.30
2018-06-24T15:04:39.310Z,20.60
2018-06-24T15:12:01.022Z,21.20
2018-06-24T15:16:55.526Z,21.50
2018-06-24T15:19:23.558Z,21.90
2018-06-24T15:21:51.591Z,21.90
2018-06-24T15:24:19.606Z,22.00
2018-06-24T15:26:46.965Z,22.40
2018-06-24T15:29:14.343Z,22.20
2018-06-24T15:31:42.371Z,21.80
2018-06-24T15:34:10.408Z,22.10
2018-06-24T15:36:38.847Z,22.30
2018-06-24T15:39:08.769Z,22.00
2018-06-24T15:41:36.125Z,21.90
2018-06-24T15:44:04.146Z,21.70
2018-06-24T15:46:32.292Z,21.60
2018-06-24T15:48:59.665Z,21.40
2018-06-24T15:51:27.332Z,21.10
2018-06-24T15:53:54.662Z,21.10
2018-06-24T15:56:22.707Z,21.20
2018-06-24T15:58:50.073Z,20.90
2018-06-24T16:01:17.435Z,21.20
2018-06-24T16:03:45.453Z,21.60
2018-06-24T16:06:13.482Z,21.80
2018-06-24T16:08:41.530Z,21.90
2018-06-24T16:11:09.562Z,21.70
2018-06-24T16:13:37.606Z,21.60
2018-06-24T16:16:04.970Z,21.20
2018-06-24T16:18:32.353Z,21.10
2018-06-24T16:20:59.992Z,21.10
2018-06-24T16:23:27.897Z,21.00
2018-06-24T16:28:23.091Z,21.10
2018-06-24T16:30:51.249Z,21.10
2018-06-24T16:35:46.414Z,21.50
2018-06-24T16:40:41.602Z,21.40
2018-06-24T16:43:09.658Z,21.50
2018-06-24T16:45:37.026Z,21.50
2018-06-24T16:48:04.445Z,21.20
2018-06-24T16:50:32.512Z,21.10
2018-06-24T16:52:59.881Z,20.90
2018-06-24T16:55:27.250Z,20.80
2018-06-24T16:57:55.343Z,20.70
2018-06-24T17:02:51.342Z,20.00
2018-06-24T17:07:47.238Z,19.80
2018-06-24T17:10:15.259Z,19.80
2018-06-24T17:12:42.656Z,19.80
2018-06-24T17:15:10.698Z,19.80
2018-06-24T17:17:38.793Z,19.90
2018-06-24T17:20:06.814Z,19.90
2018-06-24T17:22:34.835Z,19.90
2018-06-24T17:25:02.221Z,19.90
2018-06-24T17:27:29.613Z,20.00
2018-06-24T17:29:57.639Z,20.10
2018-06-24T17:32:25.690Z,20.00
2018-06-24T17:34:53.739Z,19.90
2018-06-24T17:37:21.847Z,19.80
2018-06-24T17:39:49.854Z,19.70
2018-06-24T17:42:17.882Z,19.80
2018-06-24T17:44:45.906Z,19.80
2018-06-24T17:47:13.940Z,19.80
2018-06-24T17:49:41.298Z,19.90
2018-06-24T17:52:09.322Z,20.00
2018-06-24T17:54:37.417Z,19.90
2018-06-24T17:57:05.451Z,19.80
2018-06-24T17:59:32.810Z,19.70
2018-06-24T18:02:00.839Z,19.70
2018-06-24T18:04:28.882Z,19.60
2018-06-24T18:06:56.899Z,19.60
2018-06-24T18:09:25.352Z,19.50
2018-06-24T18:11:53.382Z,19.50
2018-06-24T18:14:21.390Z,19.40
2018-06-24T18:16:49.408Z,19.30
2018-06-24T18:19:17.422Z,19.20
2018-06-24T18:21:45.446Z,19.00
2018-06-24T18:24:13.463Z,19.00
2018-06-24T18:26:41.478Z,18.90
2018-06-24T18:29:09.528Z,18.90
2018-06-24T18:31:37.538Z,18.90
2018-06-24T18:34:05.571Z,18.80
2018-06-24T18:36:33.586Z,18.70
2018-06-24T18:39:01.618Z,18.70
2018-06-24T18:41:29.643Z,18.70
2018-06-24T18:43:57.654Z,18.70
2018-06-24T18:46:25.678Z,18.70
2018-06-24T18:48:53.714Z,18.60
2018-06-24T18:51:21.861Z,18.60
2018-06-24T18:53:49.855Z,18.60
2018-06-24T18:56:17.993Z,18.50
2018-06-24T18:58:46.089Z,18.50
2018-06-24T19:01:14.087Z,18.40
2018-06-24T19:03:42.109Z,18.40
2018-06-24T19:06:10.126Z,18.40
2018-06-24T19:08:38.157Z,18.40
2018-06-24T19:11:06.167Z,18.40
2018-06-24T19:13:34.218Z,18.30
2018-06-24T19:16:02.256Z,18.30
2018-06-24T19:18:30.325Z,18.30
2018-06-24T19:20:58.402Z,18.20
2018-06-24T19:23:26.446Z,18.20
2018-06-24T19:25:54.470Z,18.20
2018-06-24T19:28:22.542Z,18.20
2018-06-24T19:30:50.559Z,18.20
2018-06-24T19:33:18.614Z,18.10
2018-06-24T19:35:46.646Z,18.10
2018-06-24T19:38:14.695Z,18.10
2018-06-24T19:40:42.759Z,18.10
2018-06-24T19:43:10.779Z,18.10
2018-06-24T19:45:38.799Z,18.10
2018-06-24T19:48:06.838Z,18.10
2018-06-24T19:50:34.238Z,18.10
2018-06-24T19:55:29.438Z,18.00
2018-06-24T19:57:56.860Z,18.00
2018-06-24T20:00:24.896Z,18.00
2018-06-24T20:02:52.926Z,18.00
2018-06-24T20:05:20.982Z,18.00
2018-06-24T20:07:49.055Z,17.90
2018-06-24T20:10:17.110Z,17.90
2018-06-24T20:12:45.192Z,17.90
2018-06-24T20:15:12.534Z,17.90
2018-06-24T20:17:39.959Z,17.90
2018-06-24T20:20:07.546Z,17.80
2018-06-24T20:22:35.614Z,17.80
2018-06-24T20:25:03.746Z,17.80
2018-06-24T20:29:59.658Z,17.80
2018-06-24T20:32:27.711Z,17.70
2018-06-24T20:37:23.599Z,17.70
2018-06-24T20:39:51.654Z,17.70
2018-06-24T20:42:19.046Z,17.70
2018-06-24T20:44:47.111Z,17.60
2018-06-24T20:47:15.151Z,17.60
2018-06-24T20:49:43.198Z,17.60
2018-06-24T20:52:11.245Z,17.50
2018-06-24T20:57:06.424Z,17.50
2018-06-24T20:59:34.446Z,17.50
2018-06-24T21:02:02.505Z,17.50
2018-06-24T21:04:30.547Z,17.40
2018-06-24T21:06:58.712Z,17.40
2018-06-24T21:09:26.694Z,17.40
2018-06-24T21:11:54.730Z,17.40
2018-06-24T21:14:22.787Z,17.30
2018-06-24T21:16:50.173Z,17.30
2018-06-24T21:19:18.207Z,17.30
2018-06-24T21:21:46.267Z,17.30
2018-06-24T21:26:41.559Z,17.20
2018-06-24T21:29:09.754Z,17.10
2018-06-24T21:31:37.818Z,17.10
2018-06-24T21:34:05.874Z,17.10
2018-06-24T21:36:33.950Z,17.00
2018-06-24T21:39:01.979Z,17.00
2018-06-24T21:41:29.354Z,16.90
2018-06-24T21:43:57.388Z,16.90
2018-06-24T21:46:24.774Z,16.80
2018-06-24T21:48:52.813Z,16.80
2018-06-24T21:51:20.192Z,16.80
2018-06-24T21:53:47.586Z,16.80
2018-06-24T21:56:15.626Z,16.80
2018-06-24T21:58:43.669Z,16.80
2018-06-24T22:01:11.694Z,16.70
2018-06-24T22:06:07.714Z,16.70
2018-06-24T22:08:35.758Z,16.70
2018-06-24T22:11:03.782Z,16.70
2018-06-24T22:13:31.827Z,16.60
2018-06-24T22:15:59.862Z,16.60
2018-06-24T22:18:27.915Z,16.60
2018-06-24T22:20:55.966Z,16.60
2018-06-24T22:23:24.048Z,16.50
2018-06-24T22:25:52.070Z,16.50
2018-06-24T22:28:20.102Z,16.50
2018-06-24T22:30:48.159Z,16.50
2018-06-24T22:33:16.202Z,16.50
2018-06-24T22:35:44.254Z,16.40
2018-06-24T22:38:12.287Z,16.40
2018-06-24T22:40:40.304Z,16.40
2018-06-24T22:43:08.322Z,16.40
2018-06-24T22:45:36.374Z,16.30
2018-06-24T22:48:04.415Z,16.30
2018-06-24T22:50:32.483Z,16.30
2018-06-24T22:53:00.522Z,16.30
2018-06-24T22:55:27.894Z,16.20
2018-06-24T22:57:55.951Z,16.20
2018-06-24T23:00:23.342Z,16.20
2018-06-24T23:02:51.374Z,16.20
2018-06-24T23:05:19.486Z,16.10
2018-06-24T23:07:47.566Z,16.10
2018-06-24T23:10:15.638Z,16.10
2018-06-24T23:12:43.838Z,16.00
2018-06-24T23:15:12.407Z,16.00
2018-06-24T23:17:40.770Z,16.00
2018-06-24T23:20:08.938Z,15.90
2018-06-24T23:22:37.204Z,15.90
2018-06-24T23:25:05.607Z,15.90
2018-06-24T23:30:00.821Z,16.00
2018-06-24T23:32:28.875Z,15.90
2018-06-24T23:34:56.905Z,15.90
2018-06-24T23:37:24.332Z,15.90
2018-06-24T23:39:51.734Z,15.90
2018-06-24T23:42:19.742Z,15.90
2018-06-24T23:44:47.776Z,15.80
2018-06-24T23:47:15.803Z,15.80
2018-06-24T23:49:43.835Z,15.80
2018-06-24T23:52:11.860Z,15.80
2018-06-24T23:54:40.314Z,15.80
2018-06-24T23:57:08.354Z,15.80
2018-06-24T23:59:35.719Z,15.80
